Time;durP1;ratioP1;P1;durP2;ratioP2;P2;SDS_P1;SDS_P2;PMS_P1;PMS_P2;Temp;Humidity;BMP_temperature;BMP_pressure;BME280_temperature;BME280_humidity;BME280_pressure;Samples;Min_cycle;Max_cycle;Signal;HPM_P1;HPM_P2
2021/01/27 00:00:51;;;;;;;4.37;3.95;;;;;;;3.33;80.45;100204.53;1847093;77;21002;-73
2021/01/27 00:03:19;;;;;;;3.55;3.22;;;;;;;3.32;80.35;100198.97;1847180;77;20982;-74
2021/01/27 00:05:50;;;;;;;4.60;3.85;;;;;;;3.30;80.33;100203.36;1847168;76;21010;-73
2021/01/27 00:09:12;;;;;;;3.83;3.45;;;;;;;3.29;80.45;100202.53;1777140;79;22684;-74
2021/01/27 00:11:41;;;;;;;3.75;3.45;;;;;;;3.19;80.65;100214.11;1749698;82;20943;-75
2021/01/27 00:14:09;;;;;;;4.00;3.22;;;;;;;3.18;80.81;100203.37;1749768;82;22289;-73
2021/01/27 00:16:37;;;;;;;3.70;3.30;;;;;;;3.20;80.93;100196.39;1749682;82;20967;-72
2021/01/27 00:19:06;;;;;;;4.87;3.42;;;;;;;3.23;80.71;100192.84;1749612;80;20959;-73
2021/01/27 00:21:34;;;;;;;3.27;2.98;;;;;;;3.23;80.65;100189.79;1749585;82;21034;-73
2021/01/27 00:24:03;;;;;;;3.85;3.52;;;;;;;3.21;80.71;100177.80;1749747;82;21353;-74
2021/01/27 00:26:31;;;;;;;3.55;3.25;;;;;;;3.18;80.84;100179.18;1749634;82;21332;-73
2021/01/27 00:29:00;;;;;;;3.70;3.40;;;;;;;3.16;80.81;100177.97;1749543;82;20947;-71
2021/01/27 00:31:28;;;;;;;4.42;2.95;;;;;;;3.16;80.75;100180.55;1749591;82;21030;-74
2021/01/27 00:33:57;;;;;;;3.60;3.30;;;;;;;3.15;80.82;100178.02;1749577;80;20947;-72
2021/01/27 00:36:25;;;;;;;3.60;3.30;;;;;;;3.18;80.74;100171.41;1749391;80;21010;-73
2021/01/27 00:38:53;;;;;;;3.72;3.15;;;;;;;3.20;80.66;100171.77;1749777;80;22766;-72
2021/01/27 00:41:21;;;;;;;2.70;2.50;;;;;;;3.17;80.58;100152.89;1751045;82;20963;-71
2021/01/27 00:43:50;;;;;;;3.22;3.00;;;;;;;3.10;80.67;100149.69;1750309;82;20915;-73
2021/01/27 00:46:19;;;;;;;5.00;3.27;;;;;;;3.07;80.69;100144.63;1749568;80;20891;-73
2021/01/27 00:48:48;;;;;;;3.30;3.00;;;;;;;3.05;80.69;100143.84;1749646;82;20991;-73
2021/01/27 00:51:16;;;;;;;4.22;3.83;;;;;;;3.02;80.76;100137.45;1749643;82;21654;-73
2021/01/27 00:53:44;;;;;;;3.75;3.45;;;;;;;3.01;80.73;100140.95;1749620;82;20920;-72
2021/01/27 00:56:15;;;;;;;3.60;2.80;;;;;;;2.99;80.78;100137.12;1749682;82;20955;-73
2021/01/27 00:58:43;;;;;;;3.52;2.80;;;;;;;2.99;80.74;100128.06;1749960;80;20941;-73
2021/01/27 01:01:13;;;;;;;5.70;3.42;;;;;;;2.97;80.72;100127.27;1748462;82;20935;-74
2021/01/27 01:03:41;;;;;;;2.77;2.58;;;;;;;2.96;80.80;100133.36;1749794;80;22445;-74
2021/01/27 01:06:10;;;;;;;3.85;3.47;;;;;;;2.99;80.77;100134.98;1750066;80;21046;-72
2021/01/27 01:08:38;;;;;;;3.72;3.12;;;;;;;3.01;80.52;100135.78;1742886;81;21011;-70
2021/01/27 01:11:08;;;;;;;4.40;3.85;;;;;;;3.02;80.38;100137.45;1737088;81;21015;-71
2021/01/27 01:13:36;;;;;;;3.50;3.20;;;;;;;3.01;80.36;100134.48;1736439;82;20948;-71
2021/01/27 01:16:05;;;;;;;4.05;2.98;;;;;;;3.02;80.46;100140.05;1736396;82;21439;-71
2021/01/27 01:18:33;;;;;;;4.92;3.87;;;;;;;3.03;80.49;100137.41;1736284;81;20971;-72
2021/01/27 01:21:01;;;;;;;3.55;3.25;;;;;;;3.02;80.42;100140.05;1735934;82;21385;-70
2021/01/27 01:23:30;;;;;;;5.42;4.08;;;;;;;3.00;80.38;100147.89;1735893;82;20892;-72
2021/01/27 01:25:58;;;;;;;4.53;3.42;;;;;;;3.00;80.24;100148.32;1735911;82;20936;-70
2021/01/27 01:28:26;;;;;;;4.22;3.60;;;;;;;2.97;80.27;100125.13;1735826;82;21208;-74
2021/01/27 01:30:54;;;;;;;3.95;3.58;;;;;;;2.97;80.21;100107.84;1735764;82;21495;-74
2021/01/27 01:33:30;;;;;;;3.27;2.98;;;;;;;2.93;80.20;100099.78;1735809;82;20956;-72
2021/01/27 01:35:59;;;;;;;3.52;3.12;;;;;;;2.88;80.39;100104.30;1735802;82;20960;-73
2021/01/27 01:38:27;;;;;;;4.47;3.77;;;;;;;2.86;80.54;100098.33;1735999;82;21486;-73
2021/01/27 01:41:00;;;;;;;3.98;3.47;;;;;;;2.87;80.68;100094.40;1735845;81;21364;-74
2021/01/27 01:43:34;;;;;;;4.33;3.92;;;;;;;2.87;80.59;100106.05;1735878;82;21362;-73
2021/01/27 01:46:20;;;;;;;5.87;4.55;;;;;;;2.83;80.62;100100.58;1735923;82;20936;-73
2021/01/27 01:48:59;;;;;;;5.92;4.00;;;;;;;2.85;80.55;100109.14;1735853;81;21378;-76
2021/01/27 01:51:46;;;;;;;4.67;3.70;;;;;;;2.88;80.44;100110.77;1735705;82;21046;-75
2021/01/27 01:54:21;;;;;;;3.98;3.58;;;;;;;2.89;80.47;100099.08;1689624;83;22780;-74
2021/01/27 01:56:59;;;;;;;5.42;4.85;;;;;;;2.86;80.58;100095.73;1672734;84;21021;-74
2021/01/27 01:59:41;;;;;;;5.80;4.08;;;;;;;2.87;80.67;100084.50;1916902;73;22280;-74
2021/01/27 02:02:12;;;;;;;5.78;4.33;;;;;;;2.79;80.53;100083.92;1886962;75;20891;-72
2021/01/27 02:05:12;;;;;;;5.20;4.70;;;;;;;2.73;80.57;100090.61;1886961;74;21803;-73
2021/01/27 02:07:51;;;;;;;4.35;3.92;;;;;;;2.76;80.62;100078.84;1813584;79;20903;-73
2021/01/27 02:10:23;;;;;;;5.62;4.42;;;;;;;2.71;80.83;100080.30;1784230;80;21025;-74
2021/01/27 02:13:31;;;;;;;4.83;4.40;;;;;;;2.70;81.01;100078.63;1784184;79;21183;-74
2021/01/27 02:16:41;;;;;;;4.85;4.37;;;;;;;2.69;80.91;100082.97;1784170;79;21614;-73
2021/01/27 02:19:37;;;;;;;5.62;4.78;;;;;;;2.68;80.97;100059.26;1784005;80;20997;-72
2021/01/27 02:22:19;;;;;;;5.37;4.87;;;;;;;2.65;81.02;100067.61;1784211;80;20982;-74
2021/01/27 02:25:25;;;;;;;5.55;4.70;;;;;;;2.62;80.94;100067.27;1784163;80;20950;-73
2021/01/27 02:27:54;;;;;;;5.25;4.60;;;;;;;2.61;81.26;100067.31;1783030;79;21207;-73
2021/01/27 02:30:33;;;;;;;6.15;5.55;;;;;;;2.64;81.50;100067.19;1784048;80;21057;-73
2021/01/27 02:33:50;;;;;;;6.83;5.90;;;;;;;2.66;81.31;100056.34;1784082;80;20962;-75
2021/01/27 02:36:28;;;;;;;5.62;5.10;;;;;;;2.62;81.25;100045.27;1784033;80;20969;-73
2021/01/27 02:39:10;;;;;;;6.17;4.90;;;;;;;2.58;81.23;100039.80;1784126;80;20890;-74
2021/01/27 02:41:56;;;;;;;4.75;4.25;;;;;;;2.55;81.36;100052.00;1784194;79;21474;-75
2021/01/27 02:44:38;;;;;;;5.45;4.95;;;;;;;2.54;81.50;100052.45;1784181;80;21001;-74
2021/01/27 02:47:11;;;;;;;6.30;5.42;;;;;;;2.55;81.69;100058.47;1784012;80;20962;-72
2021/01/27 02:49:51;;;;;;;7.28;5.17;;;;;;;2.57;81.74;100059.27;1784292;79;20899;-72
2021/01/27 02:52:22;;;;;;;6.87;5.58;;;;;;;2.60;81.61;100050.95;1784102;80;20946;-73
2021/01/27 02:55:01;;;;;;;7.78;6.03;;;;;;;2.61;81.53;100041.43;1755851;80;21199;-72
2021/01/27 02:57:44;;;;;;;6.53;5.42;;;;;;;2.61;81.41;100031.92;1784073;79;21543;-73
2021/01/27 03:00:22;;;;;;;5.60;4.78;;;;;;;2.62;81.25;100032.33;1784044;80;21014;-73
2021/01/27 03:02:57;;;;;;;6.03;5.37;;;;;;;2.60;81.37;100034.13;1784010;80;21025;-73
2021/01/27 03:05:41;;;;;;;6.28;5.33;;;;;;;2.58;81.46;100033.76;1783146;79;20934;-72
2021/01/27 03:08:16;;;;;;;6.00;5.40;;;;;;;2.59;81.49;100022.52;1778911;80;22398;-72
2021/01/27 03:11:09;;;;;;;6.00;4.97;;;;;;;2.61;81.44;100014.25;1779013;79;20950;-74
2021/01/27 03:13:38;;;;;;;6.22;5.62;;;;;;;2.63;81.34;100022.81;1779244;80;21345;-72
2021/01/27 03:16:10;;;;;;;6.67;5.62;;;;;;;2.66;81.31;100014.92;1779191;80;21010;-74
2021/01/27 03:18:40;;;;;;;6.47;5.85;;;;;;;2.66;81.25;100012.33;1778737;80;20927;-73
2021/01/27 03:21:12;;;;;;;5.90;5.28;;;;;;;2.64;81.44;100013.67;1778518;79;21369;-76
2021/01/27 03:23:45;;;;;;;6.78;5.78;;;;;;;2.66;81.44;100016.22;1778813;79;21010;-75
2021/01/27 03:26:27;;;;;;;6.03;5.42;;;;;;;2.67;81.42;100010.16;1779237;80;21010;-72
2021/01/27 03:29:03;;;;;;;5.65;5.03;;;;;;;2.67;81.20;100010.16;1779190;80;21498;-74
2021/01/27 03:31:31;;;;;;;5.25;4.75;;;;;;;2.66;81.20;100001.97;1778686;79;21539;-74
2021/01/27 03:34:07;;;;;;;5.42;4.58;;;;;;;2.66;81.17;100000.68;1778601;80;21676;-73
2021/01/27 03:36:43;;;;;;;5.37;4.85;;;;;;;2.63;81.26;99999.05;1778534;80;20923;-74
2021/01/27 03:39:13;;;;;;;5.75;4.70;;;;;;;2.58;81.34;99993.64;1778497;80;21030;-73
2021/01/27 03:41:49;;;;;;;5.92;5.33;;;;;;;2.54;81.36;99983.88;1753164;80;21013;-73
2021/01/27 03:44:29;;;;;;;4.62;4.10;;;;;;;2.50;81.39;99986.17;1778549;80;21519;-74
2021/01/27 03:47:09;;;;;;;4.78;4.37;;;;;;;2.50;81.45;99990.06;1752898;80;22279;-72
2021/01/27 03:49:55;;;;;;;5.08;4.67;;;;;;;2.49;81.45;99990.97;1778573;80;20951;-73
2021/01/27 03:52:38;;;;;;;4.35;3.95;;;;;;;2.51;81.61;99990.89;1778474;80;20955;-72
2021/01/27 03:55:26;;;;;;;4.75;4.25;;;;;;;2.53;81.58;99986.05;1778451;80;21356;-71
2021/01/27 03:58:08;;;;;;;5.25;4.80;;;;;;;2.54;81.69;99983.04;1778530;80;20942;-72
2021/01/27 04:00:36;;;;;;;5.42;4.72;;;;;;;2.58;81.72;99996.23;1778510;80;21153;-72
2021/01/27 04:03:08;;;;;;;5.33;4.65;;;;;;;2.62;81.61;99981.85;1778479;80;20954;-72
2021/01/27 04:05:37;;;;;;;4.87;4.28;;;;;;;2.66;81.47;99979.97;1778511;80;20919;-72
2021/01/27 04:08:05;;;;;;;4.20;3.80;;;;;;;2.66;81.34;99973.05;1771452;80;20939;-74
2021/01/27 04:10:34;;;;;;;4.50;4.10;;;;;;;2.66;81.30;99969.16;1770020;81;20970;-71
2021/01/27 04:13:04;;;;;;;5.15;4.37;;;;;;;2.67;81.31;99971.33;1769958;79;21193;-72
2021/01/27 04:15:32;;;;;;;4.33;3.90;;;;;;;2.64;81.31;99954.14;1769970;81;20959;-72
2021/01/27 04:18:03;;;;;;;4.58;4.17;;;;;;;2.64;81.48;99958.48;1769930;79;21428;-73
2021/01/27 04:20:32;;;;;;;5.97;4.92;;;;;;;2.68;81.48;99952.28;1769938;79;20951;-72
2021/01/27 04:22:59;;;;;;;6.58;4.28;;;;;;;2.72;81.41;99950.44;1769999;80;20931;-75
2021/01/27 04:25:28;;;;;;;4.65;3.67;;;;;;;2.76;81.11;99945.08;1769973;79;21969;-73
2021/01/27 04:27:55;;;;;;;4.60;4.25;;;;;;;2.77;81.05;99951.09;1769936;81;21566;-72
2021/01/27 04:30:33;;;;;;;4.37;3.83;;;;;;;2.76;80.96;99948.09;1769963;80;21433;-72
2021/01/27 04:33:03;;;;;;;4.47;3.85;;;;;;;2.76;81.10;99948.09;1769911;81;21022;-74
2021/01/27 04:35:31;;;;;;;4.25;3.87;;;;;;;2.79;81.28;99951.88;1770012;81;20967;-75
2021/01/27 04:37:59;;;;;;;4.67;4.28;;;;;;;2.83;81.20;99934.87;1770041;79;21813;-75
2021/01/27 04:40:35;;;;;;;4.85;4.30;;;;;;;2.87;81.11;99936.44;1769884;81;20943;-75
2021/01/27 04:43:20;;;;;;;4.65;4.17;;;;;;;2.87;80.88;99937.73;1765776;79;21452;-73
2021/01/27 04:45:57;;;;;;;4.00;3.70;;;;;;;2.89;80.94;99931.17;1770003;81;21400;-72
2021/01/27 04:48:36;;;;;;;5.03;4.53;;;;;;;2.91;80.90;99931.96;1769227;80;20983;-73
2021/01/27 04:51:05;;;;;;;3.62;3.33;;;;;;;2.90;80.84;99936.30;1737703;81;22569;-72
2021/01/27 04:53:57;;;;;;;4.47;4.08;;;;;;;2.91;80.88;99933.26;1725161;81;21449;-74
2021/01/27 04:56:50;;;;;;;4.35;3.95;;;;;;;2.89;80.86;99930.75;1769976;81;20935;-73
2021/01/27 04:59:29;;;;;;;4.87;4.05;;;;;;;2.87;80.76;99924.78;1770046;81;21464;-71
2021/01/27 05:02:19;;;;;;;4.40;4.00;;;;;;;2.89;80.88;99915.64;1769962;79;21455;-73
2021/01/27 05:05:09;;;;;;;4.40;4.00;;;;;;;2.90;80.83;99914.30;1770066;81;21456;-72
2021/01/27 05:07:52;;;;;;;4.25;3.85;;;;;;;2.93;80.69;99914.62;1773926;79;20915;-73
2021/01/27 05:10:23;;;;;;;3.80;3.50;;;;;;;2.92;80.71;99914.24;1741735;82;21671;-73
2021/01/27 05:13:09;;;;;;;4.50;3.67;;;;;;;2.96;80.84;99909.77;1742068;82;21022;-73
2021/01/27 05:15:50;;;;;;;4.50;4.10;;;;;;;3.01;80.81;99912.58;1846069;76;22769;-71
2021/01/27 05:18:19;;;;;;;4.08;3.77;;;;;;;2.99;80.59;99910.50;1818673;79;21009;-72
2021/01/27 05:20:48;;;;;;;4.83;4.35;;;;;;;2.97;80.37;99901.11;1818428;77;21363;-74
2021/01/27 05:23:18;;;;;;;4.87;4.37;;;;;;;2.92;80.33;99905.18;1818198;77;21049;-72
2021/01/27 05:25:58;;;;;;;4.67;4.28;;;;;;;2.86;80.48;99908.01;1818293;79;21061;-73
2021/01/27 05:28:31;;;;;;;4.65;3.62;;;;;;;2.87;80.72;99897.59;1816202;79;20918;-74
2021/01/27 05:30:59;;;;;;;5.85;4.65;;;;;;;2.92;80.94;99894.82;1818988;77;20967;-72
2021/01/27 05:33:53;;;;;;;4.30;3.90;;;;;;;3.00;80.94;99882.84;1819297;79;21805;-72
2021/01/27 05:36:27;;;;;;;5.95;4.70;;;;;;;3.04;80.86;99877.47;1817745;77;20958;-73
2021/01/27 05:39:13;;;;;;;5.25;4.47;;;;;;;3.06;80.47;99875.66;1818040;78;20910;-70
2021/01/27 05:41:42;;;;;;;6.55;5.75;;;;;;;2.99;80.45;99886.36;1818035;77;21732;-71
2021/01/27 05:44:16;;;;;;;5.67;5.17;;;;;;;2.97;80.74;99885.11;1818090;77;21002;-73
2021/01/27 05:46:45;;;;;;;4.90;4.47;;;;;;;2.98;80.70;99868.69;1818199;79;21170;-74
2021/01/27 05:49:29;;;;;;;5.15;4.40;;;;;;;3.00;80.69;99865.58;1787031;79;20929;-76
2021/01/27 05:52:14;;;;;;;4.95;4.45;;;;;;;2.99;80.66;99864.34;1818066;79;21005;-77
2021/01/27 05:54:46;;;;;;;5.12;4.00;;;;;;;3.00;80.79;99868.59;1817830;77;21002;-75
2021/01/27 05:57:22;;;;;;;4.62;4.17;;;;;;;3.02;80.82;99861.61;1817935;77;21516;-75
2021/01/27 05:59:49;;;;;;;4.62;4.22;;;;;;;3.03;80.85;99852.95;1817998;79;21363;-79
2021/01/27 06:02:18;;;;;;;4.62;4.10;;;;;;;3.05;80.78;99853.27;1817914;78;21419;-75
2021/01/27 06:04:57;;;;;;;6.33;5.08;;;;;;;3.07;80.90;99855.35;1787220;79;20974;-81
2021/01/27 06:07:26;;;;;;;4.72;3.92;;;;;;;3.11;81.00;99849.14;1817926;79;21099;-79
2021/01/27 06:09:54;;;;;;;5.45;4.35;;;;;;;3.13;80.87;99855.99;1818115;79;20927;-76
2021/01/27 06:12:28;;;;;;;5.15;4.65;;;;;;;3.14;80.87;99855.10;1817917;79;21367;-76
2021/01/27 06:15:08;;;;;;;6.30;5.35;;;;;;;3.17;80.81;99860.14;1817877;77;21002;-79
2021/01/27 06:17:47;;;;;;;4.87;4.45;;;;;;;3.18;80.78;99858.80;1818072;77;21416;-79
2021/01/27 06:20:31;;;;;;;5.90;4.83;;;;;;;3.22;80.86;99853.84;1817928;78;20942;-79
2021/01/27 06:23:24;;;;;;;5.70;5.08;;;;;;;3.28;80.67;99853.59;1817938;77;21002;-75
2021/01/27 06:26:29;;;;;;;4.90;4.50;;;;;;;3.35;80.71;99851.59;1817692;77;21717;-77
2021/01/27 06:29:47;;;;;;;4.33;3.92;;;;;;;3.37;80.67;99850.23;1817321;79;21495;-77
2021/01/27 06:32:40;;;;;;;4.12;3.80;;;;;;;3.42;80.69;99848.28;1817456;77;21472;-76
2021/01/27 06:35:54;;;;;;;4.78;4.37;;;;;;;3.47;80.46;99848.48;1817249;79;21006;-75
2021/01/27 06:39:13;;;;;;;6.72;4.85;;;;;;;3.54;80.17;99839.98;1817423;79;20938;-76
2021/01/27 06:42:07;;;;;;;5.60;4.83;;;;;;;3.59;80.04;99838.48;1817343;77;21736;-74
2021/01/27 06:44:40;;;;;;;4.75;4.30;;;;;;;3.63;79.81;99834.86;1817342;79;21461;-73
2021/01/27 06:47:43;;;;;;;4.80;4.40;;;;;;;3.63;79.76;99837.45;1817298;78;20998;-72
2021/01/27 06:50:42;;;;;;;4.47;4.08;;;;;;;3.67;79.76;99832.52;1817349;77;21037;-75
2021/01/27 06:53:33;;;;;;;4.90;4.40;;;;;;;3.68;79.66;99827.25;1817431;79;21404;-73
2021/01/27 06:56:23;;;;;;;5.90;4.08;;;;;;;3.69;79.65;99828.08;1817338;77;22378;-73
2021/01/27 06:59:15;;;;;;;5.37;4.85;;;;;;;3.72;79.57;99821.48;1817226;79;20939;-73
2021/01/27 07:01:57;;;;;;;5.12;4.62;;;;;;;3.72;79.38;99826.20;1817281;78;20887;-78
2021/01/27 07:04:39;;;;;;;4.75;4.35;;;;;;;3.69;79.26;99819.88;1817353;78;21097;-76
2021/01/27 07:07:48;;;;;;;4.80;4.33;;;;;;;3.66;79.32;99826.94;1817574;79;21499;-82
2021/01/27 07:10:36;;;;;;;4.95;4.47;;;;;;;3.64;79.49;99828.28;1817448;78;21434;-81
2021/01/27 07:13:50;;;;;;;6.62;5.05;;;;;;;3.59;79.57;99826.36;1817227;77;20958;-79
2021/01/27 07:16:35;;;;;;;6.12;5.53;;;;;;;3.55;79.72;99822.67;1831446;78;20966;-76
2021/01/27 07:19:49;;;;;;;5.45;4.80;;;;;;;3.51;79.84;99820.66;1832289;78;20922;-77
2021/01/27 07:22:37;;;;;;;5.92;5.33;;;;;;;3.52;80.05;99823.66;1832388;77;21435;-75
2021/01/27 07:25:13;;;;;;;6.22;4.85;;;;;;;3.57;80.08;99810.49;1832363;78;21362;-77
2021/01/27 07:27:51;;;;;;;5.80;5.20;;;;;;;3.63;80.12;99807.17;1832246;77;20934;-77
2021/01/27 07:30:35;;;;;;;5.65;4.72;;;;;;;3.72;80.03;99803.33;1832319;78;20985;-77
2021/01/27 07:33:08;;;;;;;5.83;5.22;;;;;;;3.74;79.93;99802.81;1828341;77;21467;-76
2021/01/27 07:35:40;;;;;;;6.62;5.47;;;;;;;3.77;79.90;99794.87;1805909;78;20926;-76
2021/01/27 07:38:19;;;;;;;5.83;5.22;;;;;;;3.78;79.78;99779.72;1832279;78;21189;-75
2021/01/27 07:41:02;;;;;;;5.83;4.92;;;;;;;3.77;79.62;99782.38;1832346;78;21009;-75
2021/01/27 07:43:36;;;;;;;7.53;5.62;;;;;;;3.78;79.64;99787.50;1832252;78;20953;-76
2021/01/27 07:46:04;;;;;;;6.00;4.90;;;;;;;3.83;79.65;99793.31;1832507;78;21333;-75
2021/01/27 07:48:55;;;;;;;6.08;5.40;;;;;;;3.88;79.64;99786.62;1833899;78;20946;-74
2021/01/27 07:51:30;;;;;;;8.23;4.70;;;;;;;3.91;79.63;99773.50;1835407;78;21789;-76
2021/01/27 07:54:21;;;;;;;7.05;5.08;;;;;;;3.99;79.69;99776.59;1833517;78;21368;-77
2021/01/27 07:57:12;;;;;;;8.65;5.58;;;;;;;4.05;79.59;99757.31;1832690;77;21356;-74
2021/01/27 07:59:51;;;;;;;13.28;11.43;;;;;;;4.09;79.37;99777.85;1832371;78;20984;-77
2021/01/27 08:02:23;;;;;;;8.40;7.50;;;;;;;4.12;79.19;99779.45;1829159;77;21439;-75
2021/01/27 08:04:59;;;;;;;6.80;5.50;;;;;;;4.10;79.04;99762.66;1832319;77;21454;-76
2021/01/27 08:07:30;;;;;;;8.90;6.55;;;;;;;4.10;78.98;99772.20;1832010;78;20953;-75
2021/01/27 08:10:17;;;;;;;10.95;7.95;;;;;;;4.11;79.08;99781.65;1832398;78;21590;-75
2021/01/27 08:12:53;;;;;;;8.50;6.97;;;;;;;4.15;79.18;99771.52;1824486;78;21025;-77
2021/01/27 08:15:30;;;;;;;10.78;8.10;;;;;;;4.19;79.04;99767.03;1800118;79;20994;-78
2021/01/27 08:18:10;;;;;;;9.88;8.93;;;;;;;4.19;79.19;99766.57;1817405;79;21571;-79
2021/01/27 08:20:42;;;;;;;9.03;7.17;;;;;;;4.20;79.15;99766.11;1817168;78;20982;-77
2021/01/27 08:23:24;;;;;;;11.12;7.60;;;;;;;4.18;79.27;99771.39;1817332;79;21009;-77
2021/01/27 08:26:01;;;;;;;6.72;5.78;;;;;;;4.23;79.17;99773.77;1815848;79;20950;-82
2021/01/27 08:28:41;;;;;;;7.00;6.37;;;;;;;4.25;79.08;99777.97;1817452;77;20931;-81
2021/01/27 08:31:19;;;;;;;6.65;5.95;;;;;;;4.26;79.21;99777.03;1817160;77;21352;-80
2021/01/27 08:33:55;;;;;;;7.42;6.03;;;;;;;4.31;79.39;99783.30;1817051;79;20954;-82
2021/01/27 08:36:35;;;;;;;6.67;5.87;;;;;;;4.35;79.40;99788.73;1817211;79;20915;-81
2021/01/27 08:39:09;;;;;;;8.40;6.65;;;;;;;4.38;79.37;99786.45;1817169;77;20923;-81
2021/01/27 08:42:00;;;;;;;16.85;7.62;;;;;;;4.38;79.17;99780.83;1817491;77;21082;-80
2021/01/27 08:44:35;;;;;;;17.30;10.63;;;;;;;4.35;79.14;99780.48;1817114;77;21193;-81
2021/01/27 08:47:20;;;;;;;8.50;7.10;;;;;;;4.32;79.26;99777.22;1817150;79;20950;-81
2021/01/27 08:49:57;;;;;;;9.53;6.83;;;;;;;4.30;79.25;99779.05;1817160;79;21006;-82
2021/01/27 08:52:35;;;;;;;10.82;7.85;;;;;;;4.30;79.25;99770.79;1817207;77;20903;-80
2021/01/27 08:55:46;;;;;;;7.17;6.12;;;;;;;4.31;79.35;99783.30;1817188;78;20915;-80
2021/01/27 08:58:35;;;;;;;50.58;45.40;;;;;;;4.32;79.63;99789.73;1817284;79;22030;-80
2021/01/27 09:01:14;;;;;;;9.98;8.45;;;;;;;4.39;79.79;99783.78;1817167;79;20915;-81
2021/01/27 09:03:52;;;;;;;13.40;7.50;;;;;;;4.48;79.72;99778.15;1813109;79;20926;-80
2021/01/27 09:06:44;;;;;;;11.20;7.50;;;;;;;4.56;79.32;99773.90;1816800;78;21025;-77
2021/01/27 09:09:26;;;;;;;8.27;6.50;;;;;;;4.59;79.21;99772.91;1817564;79;20919;-79
2021/01/27 09:12:04;;;;;;;9.20;6.20;;;;;;;4.63;78.98;99769.25;1786986;79;21233;-79
2021/01/27 09:14:33;;;;;;;9.38;6.03;;;;;;;4.63;78.74;99762.29;1817190;79;20903;-78
2021/01/27 09:17:04;;;;;;;9.50;7.22;;;;;;;4.61;78.87;99757.63;1831792;78;21001;-80
2021/01/27 09:19:35;;;;;;;8.48;6.60;;;;;;;4.61;78.95;99760.22;1832536;77;20922;-79
2021/01/27 09:22:23;;;;;;;8.95;7.00;;;;;;;4.67;79.06;99753.44;1805706;78;20949;-78
2021/01/27 09:24:52;;;;;;;7.78;7.08;;;;;;;4.76;78.77;99739.98;1832542;78;21473;-79
2021/01/27 09:27:30;;;;;;;9.33;7.75;;;;;;;4.77;78.47;99737.75;1832663;78;20946;-78
2021/01/27 09:30:04;;;;;;;7.22;6.28;;;;;;;4.81;78.56;99731.12;1834176;78;21013;-78
2021/01/27 09:32:32;;;;;;;7.97;6.70;;;;;;;4.88;78.45;99728.59;1835973;78;20973;-77
2021/01/27 09:35:20;;;;;;;8.33;6.53;;;;;;;4.90;78.34;99720.27;1834132;78;21399;-78
2021/01/27 09:38:05;;;;;;;8.85;6.42;;;;;;;4.89;78.27;99715.53;1832473;77;21354;-77
2021/01/27 09:40:38;;;;;;;7.97;6.83;;;;;;;4.90;78.28;99712.47;1832631;78;20930;-76
2021/01/27 09:43:12;;;;;;;11.55;6.95;;;;;;;4.90;78.26;99721.10;1832302;78;20934;-78
2021/01/27 09:45:42;;;;;;;;;;;;;;;4.93;78.21;99715.73;1835145;77;21005;-76
2021/01/27 09:48:11;;;;;;;6.17;5.30;;;;;;;4.95;78.17;99722.99;1832383;78;20167;-79
2021/01/27 09:50:42;;;;;;;8.93;6.37;;;;;;;4.93;78.04;99724.00;1832645;78;21425;-78
2021/01/27 09:53:24;;;;;;;10.25;7.22;;;;;;;4.86;78.10;99724.77;1832464;78;20953;-76
2021/01/27 09:55:54;;;;;;;9.80;7.37;;;;;;;4.83;78.13;99712.41;1828575;78;20922;-78
2021/01/27 09:58:22;;;;;;;7.78;6.80;;;;;;;4.78;78.48;99715.25;1832616;78;21064;-78
2021/01/27 10:00:50;;;;;;;11.75;8.78;;;;;;;4.75;78.61;99719.28;1832768;78;20914;-78
2021/01/27 10:03:38;;;;;;;11.70;7.70;;;;;;;4.74;78.93;99716.31;1833553;78;21964;-78
2021/01/27 10:06:37;;;;;;;11.97;8.53;;;;;;;4.77;79.02;99717.45;1833364;78;21076;-77
2021/01/27 10:09:25;;;;;;;9.45;6.85;;;;;;;4.82;79.14;99712.02;1832819;78;20921;-77
2021/01/27 10:12:04;;;;;;;12.10;7.80;;;;;;;4.87;78.89;99703.08;1823829;78;20938;-75
2021/01/27 10:14:38;;;;;;;7.90;6.50;;;;;;;4.83;78.87;99700.72;1832633;77;21518;-77
2021/01/27 10:17:09;;;;;;;10.28;6.28;;;;;;;4.80;78.97;99692.60;1832646;78;21362;-77
2021/01/27 10:19:49;;;;;;;8.03;6.47;;;;;;;4.81;78.92;99691.70;1832351;77;21048;-78
2021/01/27 10:22:30;;;;;;;10.20;7.15;;;;;;;4.80;79.02;99691.77;1832460;77;21021;-80
2021/01/27 10:25:04;;;;;;;7.35;6.35;;;;;;;4.76;79.20;99688.51;1832623;78;21530;-78
2021/01/27 10:27:40;;;;;;;6.85;6.22;;;;;;;4.72;79.45;99687.81;1832541;78;21447;-79
2021/01/27 10:30:22;;;;;;;6.67;5.85;;;;;;;4.77;79.44;99686.28;1832272;77;21138;-78
2021/01/27 10:32:51;;;;;;;7.95;6.70;;;;;;;4.80;79.50;99681.38;1832486;78;20985;-78
2021/01/27 10:35:28;;;;;;;9.18;6.95;;;;;;;4.85;79.29;99680.23;1832651;78;21344;-79
2021/01/27 10:38:12;;;;;;;9.80;7.30;;;;;;;4.87;79.32;99674.94;1832479;78;20977;-81
2021/01/27 10:40:38;;;;;;;15.50;10.75;;;;;;;4.90;79.20;99669.14;1832871;78;20966;-77
2021/01/27 10:43:18;;;;;;;11.10;7.50;;;;;;;4.94;79.13;99657.67;1832446;77;21797;-79
2021/01/27 10:45:46;;;;;;;8.83;6.53;;;;;;;4.98;79.42;99659.20;1832437;77;20930;-78
2021/01/27 10:48:29;;;;;;;9.13;7.97;;;;;;;5.07;79.32;99651.81;1832419;78;20929;-79
2021/01/27 10:51:07;;;;;;;11.45;9.43;;;;;;;5.09;79.08;99656.05;1832454;78;21020;-79
2021/01/27 10:53:39;;;;;;;11.33;8.38;;;;;;;5.09;79.02;99657.34;1832492;78;21059;-78
2021/01/27 10:56:06;;;;;;;12.18;10.18;;;;;;;5.09;78.88;99655.18;1832517;78;21373;-78
2021/01/27 10:58:34;;;;;;;11.45;9.90;;;;;;;5.06;78.81;99650.98;1832396;78;21372;-78
2021/01/27 11:01:02;;;;;;;11.30;8.88;;;;;;;5.06;78.79;99652.28;1832378;78;20966;-78
2021/01/27 11:03:30;;;;;;;11.25;8.90;;;;;;;5.10;78.84;99655.58;1832321;77;20997;-77
2021/01/27 11:05:59;;;;;;;11.93;9.50;;;;;;;5.11;78.87;99653.34;1832332;77;21005;-78
2021/01/27 11:08:29;;;;;;;12.35;10.30;;;;;;;5.15;78.93;99650.97;1832424;77;21721;-78
2021/01/27 11:10:59;;;;;;;13.32;10.13;;;;;;;5.17;79.14;99642.16;1832447;78;21471;-79
2021/01/27 11:13:27;;;;;;;14.83;12.40;;;;;;;5.26;79.35;99644.73;1832307;78;21037;-78
2021/01/27 11:15:55;;;;;;;16.93;11.63;;;;;;;5.37;79.18;99650.19;1832253;78;21029;-79
2021/01/27 11:18:24;;;;;;;16.75;12.58;;;;;;;5.46;78.96;99652.75;1832335;77;20914;-79
2021/01/27 11:20:52;;;;;;;17.87;15.83;;;;;;;5.55;78.58;99642.31;1832346;78;21371;-80
2021/01/27 11:23:22;;;;;;;19.52;15.40;;;;;;;5.58;78.31;99640.39;1832303;78;20989;-80
2021/01/27 11:25:52;;;;;;;13.38;11.40;;;;;;;5.59;78.42;99642.52;1832313;77;20997;-82
2021/01/27 11:28:24;;;;;;;14.90;11.30;;;;;;;5.59;78.63;99634.25;1832259;78;20942;-79
2021/01/27 11:30:53;;;;;;;15.07;10.60;;;;;;;5.64;78.33;99633.16;1832607;78;20917;-79
2021/01/27 11:33:25;;;;;;;17.25;12.73;;;;;;;5.64;78.27;99626.19;1832338;78;21367;-78
2021/01/27 11:35:56;;;;;;;24.87;17.25;;;;;;;5.67;78.31;99614.34;1832784;78;20950;-80
2021/01/27 11:38:24;;;;;;;22.90;15.98;;;;;;;5.68;78.08;99611.27;1833178;78;21352;-80
2021/01/27 11:40:53;;;;;;;15.43;12.05;;;;;;;5.67;78.08;99609.14;1832611;78;20914;-80
2021/01/27 11:43:20;;;;;;;16.67;12.35;;;;;;;5.66;78.22;99607.91;1832841;78;20966;-81
2021/01/27 11:45:48;;;;;;;16.10;12.43;;;;;;;5.64;78.23;99607.16;1832504;78;22675;-81
2021/01/27 11:48:18;;;;;;;16.02;12.20;;;;;;;5.59;78.46;99601.74;1828448;78;21068;-81
2021/01/27 11:50:48;;;;;;;16.65;12.58;;;;;;;5.63;78.63;99605.02;1832953;77;21017;-80
2021/01/27 11:53:17;;;;;;;16.77;13.50;;;;;;;5.67;78.52;99602.63;1832412;77;21013;-75
2021/01/27 11:55:45;;;;;;;18.82;15.88;;;;;;;5.70;78.35;99605.52;1832313;78;20938;-80
2021/01/27 11:58:13;;;;;;;23.02;16.40;;;;;;;5.69;78.24;99604.69;1832559;77;21475;-75
2021/01/27 12:00:41;;;;;;;22.32;15.78;;;;;;;5.73;78.38;99603.56;1832290;78;21324;-75
2021/01/27 12:03:10;;;;;;;19.32;16.05;;;;;;;5.77;78.44;99592.53;1832259;78;20954;-74
2021/01/27 12:05:39;;;;;;;21.48;16.85;;;;;;;5.79;78.59;99585.02;1802034;78;20974;-74
2021/01/27 12:08:07;;;;;;;23.25;16.57;;;;;;;5.83;78.75;99579.66;1799657;79;21013;-75
2021/01/27 12:10:35;;;;;;;25.37;18.62;;;;;;;5.90;78.75;99576.60;1799657;78;22697;-74
2021/01/27 12:13:04;;;;;;;23.45;16.85;;;;;;;5.94;78.44;99569.47;1799576;78;20934;-74
2021/01/27 12:15:32;;;;;;;22.93;17.17;;;;;;;5.91;78.19;99573.06;1799671;79;20938;-78
2021/01/27 12:18:01;;;;;;;24.20;17.35;;;;;;;5.87;78.14;99570.28;1799556;79;21029;-74
2021/01/27 12:20:30;;;;;;;23.40;17.73;;;;;;;5.85;78.26;99558.27;1799695;78;20946;-78
2021/01/27 12:26:07;;;;;;;26.90;19.37;;;;;;;5.88;78.58;99539.89;1844802;76;22668;-74